Pacific Journey — 3FFE — position and weather

sailwx.info

Track history (hours):
 
Tides and Currents Weather Stations Pressure Air Temp Water Temp Dewpoint Dewpoint Depression Visibility Wind Speed Wind Dir Waves Ship Positions

Pacific Journey

Last reported at 2015-Jun-05 02:11 UTC. Time now 2015-Jul-02 12:32 UTC.
Position N 48°12' W 007°58'.
Warning: this ship's position is 27 days out of date.

Length 180 m; draft 7.7 m.

Type: Cargo ship. MMSI: 371467000.

Date/timePositionNaut miles runAvg speedWind from/ knotsBaromVisibWave heightAir tempDewpointWater temp
2015-Jun-05 02:11N 48°12' W 007°58'711.8
2015-Jun-05 01:33N 48°15' W 007°47'4213.1
2015-Jun-04 22:21N 48°31' W 006°49'13812.5
2015-Jun-04 11:18N 49°41' W 003°46'1513.3
2015-Jun-04 10:08N 49°49' W 003°26'712.2
2015-Jun-04 09:32N 49°53' W 003°16'9 9.1
2015-Jun-04 08:33N 49°57' W 003°04'1110.8
2015-Jun-04 07:34N 50°00' W 002°48'1111.0
2015-Jun-04 06:33N 50°03' W 002°31'1212.1
2015-Jun-04 05:33N 50°06' W 002°13'1414.0
2015-Jun-04 04:34N 50°10' W 001°52'1513.5
2015-Jun-04 03:26N 50°07' W 001°29'1415.6
2015-Jun-04 02:33N 49°60' W 001°11'1615.9
2015-Jun-04 01:33N 49°49' W 000°52'1414.6
2015-Jun-04 00:34N 49°40' W 000°35'1313.4
2015-Jun-03 23:33N 49°32' W 000°18'1211.9
2015-Jun-03 22:33N 49°28' W 000°01'1111.2
2015-Jun-03 21:34N 49°26' E 000°16'9 9.1
2015-Jun-03 20:34N 49°29' E 000°29'7 6.9
2015-Jun-03 19:33N 49°27' E 000°39'6 6.3
2015-Jun-03 18:34N 49°28' E 000°49'5 3.6
2015-Jun-03 17:17N 49°28' E 000°56'1 0.0
2015-Jun-03 00:33N 49°28' E 000°56'5 5.0
2015-Jun-02 23:29N 49°26' E 000°48'6 6.0
2015-Jun-02 22:26N 49°29' E 000°40'7 8.0
2015-Jun-02 21:33N 49°29' E 000°29'1313.0
2015-Jun-02 20:33N 49°26' E 000°10'1211.5
2015-Jun-02 19:33N 49°31' W 000°06'1211.7
2015-Jun-02 18:33N 49°41' E 000°00'1312.5
2015-Jun-02 17:33N 49°53' E 000°09'4212.3
2015-Jun-02 14:06N 50°30' E 000°41'610.3
2015-Jun-02 13:34N 50°35' E 000°43'10 9.9
2015-Jun-02 12:33N 50°43' E 000°53'8 8.5
2015-Jun-02 11:34N 50°49' E 001°03'8 7.3
2015-Jun-02 10:25N 50°55' E 001°12'6 7.2
2015-Jun-02 09:33N 50°59' E 001°19'8 7.7
2015-Jun-02 08:34N 51°05' E 001°28'9 8.8
2015-Jun-02 07:34N 51°09' E 001°39'1010.4
2015-Jun-02 06:34N 51°18' E 001°49'1010.2
2015-Jun-02 05:34N 51°25' E 002°01'1111.5
2015-Jun-02 04:33N 51°21' E 002°18'1111.3
2015-Jun-02 03:34N 51°23' E 002°35'1010.2
2015-Jun-02 02:33N 51°23' E 002°52'1110.9
2015-Jun-02 01:34N 51°24' E 003°09'1111.4
2015-Jun-02 00:33N 51°25' E 003°27'9 8.6
2015-Jun-01 23:33N 51°26' E 003°41'8 8.5
2015-Jun-01 22:34N 51°20' E 003°49'1 1.5
2015-Jun-01 21:33N 51°18' E 003°50'6 6.3
2015-Jun-01 20:34N 51°12' E 003°48'2 1.6
2015-Jun-01 19:30N 51°11' E 003°48'0 0.0
2015-Jun-01 18:33N 51°11' E 003°48'0 0.0
2015-Jun-01 17:33N 51°11' E 003°48'0 0.0
2015-Jun-01 16:33N 51°11' E 003°48'0 0.0
2015-Jun-01 15:33N 51°11' E 003°48'0 0.0
2015-Jun-01 14:33N 51°11' E 003°48'0 0.0
2015-Jun-01 13:33N 51°11' E 003°48'0 0.0
2015-Jun-01 12:33N 51°11' E 003°48'0 0.0
2015-Jun-01 11:33N 51°11' E 003°48'0 0.0
2015-Jun-01 10:33N 51°11' E 003°48'0 0.0
2015-Jun-01 09:33N 51°11' E 003°48'0 0.0
2015-Jun-01 08:33N 51°11' E 003°48'0 0.0
2015-Jun-01 07:33N 51°11' E 003°48'0 0.0
2015-Jun-01 06:30N 51°11' E 003°48'0 0.0
2015-Jun-01 05:33N 51°11' E 003°48'0 0.0
2015-Jun-01 02:33N 51°11' E 003°48'0 0.0
2015-Jun-01 01:33N 51°11' E 003°48'0 0.0
2015-Jun-01 00:33N 51°11' E 003°48'0 0.0
2015-May-31 23:33N 51°11' E 003°48'0 0.0
2015-May-31 22:33N 51°11' E 003°48'0 0.0
2015-May-31 21:33N 51°11' E 003°48'0 0.0
2015-May-31 20:33N 51°11' E 003°48'0 0.0
2015-May-31 19:33N 51°11' E 003°48'0 0.0
2015-May-31 18:33N 51°11' E 003°48'0 0.0
2015-May-31 17:30N 51°11' E 003°48'0 0.0
2015-May-31 16:30N 51°11' E 003°48'0 0.0
2015-May-31 15:33N 51°11' E 003°48'0 0.0
2015-May-31 14:33N 51°11' E 003°48'0 0.0
2015-May-31 13:33N 51°11' E 003°48'0 0.0
2015-May-31 12:30N 51°11' E 003°48'0 0.0
2015-May-31 11:33N 51°11' E 003°48'0 0.0
2015-May-31 10:33N 51°11' E 003°48'0 0.0
2015-May-31 09:33N 51°11' E 003°48'0 0.0
2015-May-31 08:33N 51°11' E 003°48'1 1.4
2015-May-31 07:34N 51°12' E 003°48'5 4.8
2015-May-31 06:33N 51°17' E 003°50'3 3.3
2015-May-31 05:34N 51°20' E 003°49'4 4.0
2015-May-31 04:34N 51°22' E 003°44'8 7.6
2015-May-31 03:34N 51°26' E 003°34'9 9.4
2015-May-31 02:33N 51°34' E 003°25'1111.4
2015-May-31 01:33N 51°43' E 003°14'5 5.3
2015-May-31 00:32N 51°48' E 003°18'0 0.1
2015-May-30 23:16N 51°48' E 003°18'0 0.1
2015-May-30 20:10N 51°48' E 003°18'2312.8
2015-May-30 18:20N 52°11' E 003°27'1313.9
2015-May-30 17:23N 52°24' E 003°29'1213.5
2015-May-30 16:31N 52°36' E 003°30'1213.1
2015-May-30 15:33N 52°46' E 003°43'1212.3
2015-May-30 14:33N 52°55' E 003°56'1211.8
2015-May-30 13:33N 53°03' E 004°11'1211.5
2015-May-30 12:33N 53°11' E 004°25'2912.8
2015-May-30 10:19N 53°38' E 004°40'1013.0
2015-May-30 09:32N 53°47' E 004°47'1313.1
2015-May-30 08:31N 53°60' E 004°54'1212.9
2015-May-30 07:33N 54°11' E 005°03'1212.2
2015-May-30 06:32N 54°23' E 005°11'8213.0
2015-May-30 00:15N 55°34' E 006°22'18811.8
2015-May-29 08:21N 57°50' E 010°18'810.6
2015-May-29 07:33N 57°50' E 010°34'1110.6
2015-May-29 06:33N 57°46' E 010°52'1212.5
2015-May-29 05:33N 57°37' E 011°08'1212.1
2015-May-29 04:33N 57°29' E 011°25'1312.7
2015-May-29 03:33N 57°17' E 011°33'1212.4
2015-May-29 02:33N 57°06' E 011°41'1212.1
2015-May-29 01:33N 56°54' E 011°50'1211.9
2015-May-29 00:33N 56°47' E 012°07'1211.9
2015-May-28 23:33N 56°40' E 012°24'1110.7
2015-May-28 22:33N 56°36' E 012°42'5 5.4
2015-May-28 21:33N 56°39' E 012°50'1 0.8
2015-May-28 20:32N 56°39' E 012°51'0 0.0
2015-May-28 19:32N 56°39' E 012°51'0 0.0
2015-May-28 18:32N 56°39' E 012°51'0 0.0
2015-May-28 17:32N 56°39' E 012°51'0 0.0
2015-May-28 16:14N 56°39' E 012°51'0 0.0
2015-May-28 15:32N 56°39' E 012°51'0 0.0
2015-May-28 14:32N 56°39' E 012°51'0 0.0
2015-May-28 13:32N 56°39' E 012°51'0 0.0
2015-May-28 12:32N 56°39' E 012°51'0 0.0
2015-May-28 11:32N 56°39' E 012°51'0 0.0
2015-May-28 10:32N 56°39' E 012°51'0 0.0
2015-May-28 09:32N 56°39' E 012°51'0 0.0
2015-May-28 08:32N 56°39' E 012°51'0 0.0
2015-May-28 07:26N 56°39' E 012°51'0 0.0
2015-May-28 06:32N 56°39' E 012°51'0 0.0
2015-May-28 05:26N 56°39' E 012°51'0 0.0
2015-May-28 04:32N 56°39' E 012°51'0 0.0
2015-May-28 03:32N 56°39' E 012°51'0 0.0
2015-May-28 02:32N 56°39' E 012°51'0 0.0
2015-May-28 01:32N 56°39' E 012°51'0 0.0
2015-May-28 00:32N 56°39' E 012°51'0 0.0
2015-May-27 23:32N 56°39' E 012°51'0 0.0
2015-May-27 22:32N 56°39' E 012°51'0 0.0
2015-May-27 21:32N 56°39' E 012°51'0 0.0
2015-May-27 20:32N 56°39' E 012°51'0 0.0
2015-May-27 19:32N 56°39' E 012°51'0 0.0
2015-May-27 18:32N 56°39' E 012°51'0 0.0
2015-May-27 17:32N 56°39' E 012°51'0 0.2
2015-May-27 16:32N 56°39' E 012°51'0 0.2
2015-May-27 15:32N 56°39' E 012°51'0 0.0
2015-May-27 14:32N 56°39' E 012°51'0 0.0
2015-May-27 13:32N 56°39' E 012°51'0 0.0
2015-May-27 12:32N 56°39' E 012°51'0 0.0
2015-May-27 11:32N 56°39' E 012°51'0 0.0
2015-May-27 10:20N 56°39' E 012°51'0 0.0
2015-May-27 09:32N 56°39' E 012°51'0 0.0
2015-May-27 08:26N 56°39' E 012°51'0 0.0
2015-May-27 07:32N 56°39' E 012°51'0 0.0
2015-May-27 06:26N 56°39' E 012°51'0 0.0
2015-May-27 05:32N 56°39' E 012°51'0 0.0
2015-May-27 04:32N 56°39' E 012°51'0 0.0
2015-May-27 03:32N 56°39' E 012°51'0 0.0
2015-May-27 02:14N 56°39' E 012°51'0 0.0
2015-May-27 01:26N 56°39' E 012°51'0 0.0
2015-May-26 20:26N 56°39' E 012°51'0 0.0
2015-May-26 19:32N 56°39' E 012°51'0 0.0
2015-May-26 18:32N 56°39' E 012°51'0 0.0
2015-May-26 17:26N 56°39' E 012°51'0 0.0
2015-May-26 16:20N 56°39' E 012°51'0 0.0
2015-May-26 15:20N 56°39' E 012°51'0 0.0
2015-May-26 12:26N 56°39' E 012°51'0 0.0
2015-May-26 11:32N 56°39' E 012°51'0 0.0
2015-May-26 09:20N 56°39' E 012°51'0 0.0
2015-May-26 08:14N 56°39' E 012°51'0 0.0
2015-May-26 07:26N 56°39' E 012°51'0 0.0
2015-May-26 06:14N 56°39' E 012°51'0 0.0
2015-May-26 05:20N 56°39' E 012°51'0 0.0
2015-May-26 04:08N 56°39' E 012°51'0 0.0
2015-May-26 03:26N 56°39' E 012°51'0 0.0
2015-May-26 02:32N 56°39' E 012°51'  
Track history (hours):
 
Tides and Currents Weather Stations Pressure Air Temp Water Temp Dewpoint Dewpoint Depression Visibility Wind Speed Wind Dir Waves Ship Positions

Pacific Journey

Last reported at 2015-Jun-05 02:11 UTC. Time now 2015-Jul-02 12:32 UTC.
Position N 48°12' W 007°58'.
Warning: this ship's position is 27 days out of date.

Length 180 m; draft 7.7 m.

Type: Cargo ship. MMSI: 371467000.

Date/timePositionNaut miles runAvg speedWind from/ knotsBaromVisibWave heightAir tempDewpointWater temp
2015-Jun-05 02:11N 48°12' W 007°58'711.8
2015-Jun-05 01:33N 48°15' W 007°47'4213.1
2015-Jun-04 22:21N 48°31' W 006°49'13812.5
2015-Jun-04 11:18N 49°41' W 003°46'1513.3
2015-Jun-04 10:08N 49°49' W 003°26'712.2
2015-Jun-04 09:32N 49°53' W 003°16'9 9.1
2015-Jun-04 08:33N 49°57' W 003°04'1110.8
2015-Jun-04 07:34N 50°00' W 002°48'1111.0
2015-Jun-04 06:33N 50°03' W 002°31'1212.1
2015-Jun-04 05:33N 50°06' W 002°13'1414.0
2015-Jun-04 04:34N 50°10' W 001°52'1513.5
2015-Jun-04 03:26N 50°07' W 001°29'1415.6
2015-Jun-04 02:33N 49°60' W 001°11'1615.9
2015-Jun-04 01:33N 49°49' W 000°52'1414.6
2015-Jun-04 00:34N 49°40' W 000°35'1313.4
2015-Jun-03 23:33N 49°32' W 000°18'1211.9
2015-Jun-03 22:33N 49°28' W 000°01'1111.2
2015-Jun-03 21:34N 49°26' E 000°16'9 9.1
2015-Jun-03 20:34N 49°29' E 000°29'7 6.9
2015-Jun-03 19:33N 49°27' E 000°39'6 6.3
2015-Jun-03 18:34N 49°28' E 000°49'5 3.6
2015-Jun-03 17:17N 49°28' E 000°56'1 0.0
2015-Jun-03 00:33N 49°28' E 000°56'5 5.0
2015-Jun-02 23:29N 49°26' E 000°48'6 6.0
2015-Jun-02 22:26N 49°29' E 000°40'7 8.0
2015-Jun-02 21:33N 49°29' E 000°29'1313.0
2015-Jun-02 20:33N 49°26' E 000°10'1211.5
2015-Jun-02 19:33N 49°31' W 000°06'1211.7
2015-Jun-02 18:33N 49°41' E 000°00'1312.5
2015-Jun-02 17:33N 49°53' E 000°09'4212.3
2015-Jun-02 14:06N 50°30' E 000°41'610.3
2015-Jun-02 13:34N 50°35' E 000°43'10 9.9
2015-Jun-02 12:33N 50°43' E 000°53'8 8.5
2015-Jun-02 11:34N 50°49' E 001°03'8 7.3
2015-Jun-02 10:25N 50°55' E 001°12'6 7.2
2015-Jun-02 09:33N 50°59' E 001°19'8 7.7
2015-Jun-02 08:34N 51°05' E 001°28'9 8.8
2015-Jun-02 07:34N 51°09' E 001°39'1010.4
2015-Jun-02 06:34N 51°18' E 001°49'1010.2
2015-Jun-02 05:34N 51°25' E 002°01'1111.5
2015-Jun-02 04:33N 51°21' E 002°18'1111.3
2015-Jun-02 03:34N 51°23' E 002°35'1010.2
2015-Jun-02 02:33N 51°23' E 002°52'1110.9
2015-Jun-02 01:34N 51°24' E 003°09'1111.4
2015-Jun-02 00:33N 51°25' E 003°27'9 8.6
2015-Jun-01 23:33N 51°26' E 003°41'8 8.5
2015-Jun-01 22:34N 51°20' E 003°49'1 1.5
2015-Jun-01 21:33N 51°18' E 003°50'6 6.3
2015-Jun-01 20:34N 51°12' E 003°48'2 1.6
2015-Jun-01 19:30N 51°11' E 003°48'0 0.0
2015-Jun-01 18:33N 51°11' E 003°48'0 0.0
2015-Jun-01 17:33N 51°11' E 003°48'0 0.0
2015-Jun-01 16:33N 51°11' E 003°48'0 0.0
2015-Jun-01 15:33N 51°11' E 003°48'0 0.0
2015-Jun-01 14:33N 51°11' E 003°48'0 0.0
2015-Jun-01 13:33N 51°11' E 003°48'0 0.0
2015-Jun-01 12:33N 51°11' E 003°48'0 0.0
2015-Jun-01 11:33N 51°11' E 003°48'0 0.0
2015-Jun-01 10:33N 51°11' E 003°48'0 0.0
2015-Jun-01 09:33N 51°11' E 003°48'0 0.0
2015-Jun-01 08:33N 51°11' E 003°48'0 0.0
2015-Jun-01 07:33N 51°11' E 003°48'0 0.0
2015-Jun-01 06:30N 51°11' E 003°48'0 0.0
2015-Jun-01 05:33N 51°11' E 003°48'0 0.0
2015-Jun-01 02:33N 51°11' E 003°48'0 0.0
2015-Jun-01 01:33N 51°11' E 003°48'0 0.0
2015-Jun-01 00:33N 51°11' E 003°48'0 0.0
2015-May-31 23:33N 51°11' E 003°48'0 0.0
2015-May-31 22:33N 51°11' E 003°48'0 0.0
2015-May-31 21:33N 51°11' E 003°48'0 0.0
2015-May-31 20:33N 51°11' E 003°48'0 0.0
2015-May-31 19:33N 51°11' E 003°48'0 0.0
2015-May-31 18:33N 51°11' E 003°48'0 0.0
2015-May-31 17:30N 51°11' E 003°48'0 0.0
2015-May-31 16:30N 51°11' E 003°48'0 0.0
2015-May-31 15:33N 51°11' E 003°48'0 0.0
2015-May-31 14:33N 51°11' E 003°48'0 0.0
2015-May-31 13:33N 51°11' E 003°48'0 0.0
2015-May-31 12:30N 51°11' E 003°48'0 0.0
2015-May-31 11:33N 51°11' E 003°48'0 0.0
2015-May-31 10:33N 51°11' E 003°48'0 0.0
2015-May-31 09:33N 51°11' E 003°48'0 0.0
2015-May-31 08:33N 51°11' E 003°48'1 1.4
2015-May-31 07:34N 51°12' E 003°48'5 4.8
2015-May-31 06:33N 51°17' E 003°50'3 3.3
2015-May-31 05:34N 51°20' E 003°49'4 4.0
2015-May-31 04:34N 51°22' E 003°44'8 7.6
2015-May-31 03:34N 51°26' E 003°34'9 9.4
2015-May-31 02:33N 51°34' E 003°25'1111.4
2015-May-31 01:33N 51°43' E 003°14'5 5.3
2015-May-31 00:32N 51°48' E 003°18'0 0.1
2015-May-30 23:16N 51°48' E 003°18'0 0.1
2015-May-30 20:10N 51°48' E 003°18'2312.8
2015-May-30 18:20N 52°11' E 003°27'1313.9
2015-May-30 17:23N 52°24' E 003°29'1213.5
2015-May-30 16:31N 52°36' E 003°30'1213.1
2015-May-30 15:33N 52°46' E 003°43'1212.3
2015-May-30 14:33N 52°55' E 003°56'1211.8
2015-May-30 13:33N 53°03' E 004°11'1211.5
2015-May-30 12:33N 53°11' E 004°25'2912.8
2015-May-30 10:19N 53°38' E 004°40'1013.0
2015-May-30 09:32N 53°47' E 004°47'1313.1
2015-May-30 08:31N 53°60' E 004°54'1212.9
2015-May-30 07:33N 54°11' E 005°03'1212.2
2015-May-30 06:32N 54°23' E 005°11'8213.0
2015-May-30 00:15N 55°34' E 006°22'18811.8
2015-May-29 08:21N 57°50' E 010°18'810.6
2015-May-29 07:33N 57°50' E 010°34'1110.6
2015-May-29 06:33N 57°46' E 010°52'1212.5
2015-May-29 05:33N 57°37' E 011°08'1212.1
2015-May-29 04:33N 57°29' E 011°25'1312.7
2015-May-29 03:33N 57°17' E 011°33'1212.4
2015-May-29 02:33N 57°06' E 011°41'1212.1
2015-May-29 01:33N 56°54' E 011°50'1211.9
2015-May-29 00:33N 56°47' E 012°07'1211.9
2015-May-28 23:33N 56°40' E 012°24'1110.7
2015-May-28 22:33N 56°36' E 012°42'5 5.4
2015-May-28 21:33N 56°39' E 012°50'1 0.8
2015-May-28 20:32N 56°39' E 012°51'0 0.0
2015-May-28 19:32N 56°39' E 012°51'0 0.0
2015-May-28 18:32N 56°39' E 012°51'0 0.0
2015-May-28 17:32N 56°39' E 012°51'0 0.0
2015-May-28 16:14N 56°39' E 012°51'0 0.0
2015-May-28 15:32N 56°39' E 012°51'0 0.0
2015-May-28 14:32N 56°39' E 012°51'0 0.0
2015-May-28 13:32N 56°39' E 012°51'0 0.0
2015-May-28 12:32N 56°39' E 012°51'0 0.0
2015-May-28 11:32N 56°39' E 012°51'0 0.0
2015-May-28 10:32N 56°39' E 012°51'0 0.0
2015-May-28 09:32N 56°39' E 012°51'0 0.0
2015-May-28 08:32N 56°39' E 012°51'0 0.0
2015-May-28 07:26N 56°39' E 012°51'0 0.0
2015-May-28 06:32N 56°39' E 012°51'0 0.0
2015-May-28 05:26N 56°39' E 012°51'0 0.0
2015-May-28 04:32N 56°39' E 012°51'0 0.0
2015-May-28 03:32N 56°39' E 012°51'0 0.0
2015-May-28 02:32N 56°39' E 012°51'0 0.0
2015-May-28 01:32N 56°39' E 012°51'0 0.0
2015-May-28 00:32N 56°39' E 012°51'0 0.0
2015-May-27 23:32N 56°39' E 012°51'0 0.0
2015-May-27 22:32N 56°39' E 012°51'0 0.0
2015-May-27 21:32N 56°39' E 012°51'0 0.0
2015-May-27 20:32N 56°39' E 012°51'0 0.0
2015-May-27 19:32N 56°39' E 012°51'0 0.0
2015-May-27 18:32N 56°39' E 012°51'0 0.0
2015-May-27 17:32N 56°39' E 012°51'0 0.2
2015-May-27 16:32N 56°39' E 012°51'0 0.2
2015-May-27 15:32N 56°39' E 012°51'0 0.0
2015-May-27 14:32N 56°39' E 012°51'0 0.0
2015-May-27 13:32N 56°39' E 012°51'0 0.0
2015-May-27 12:32N 56°39' E 012°51'0 0.0
2015-May-27 11:32N 56°39' E 012°51'0 0.0
2015-May-27 10:20N 56°39' E 012°51'0 0.0
2015-May-27 09:32N 56°39' E 012°51'0 0.0
2015-May-27 08:26N 56°39' E 012°51'0 0.0
2015-May-27 07:32N 56°39' E 012°51'0 0.0
2015-May-27 06:26N 56°39' E 012°51'0 0.0
2015-May-27 05:32N 56°39' E 012°51'0 0.0
2015-May-27 04:32N 56°39' E 012°51'0 0.0
2015-May-27 03:32N 56°39' E 012°51'0 0.0
2015-May-27 02:14N 56°39' E 012°51'0 0.0
2015-May-27 01:26N 56°39' E 012°51'0 0.0
2015-May-26 20:26N 56°39' E 012°51'0 0.0
2015-May-26 19:32N 56°39' E 012°51'0 0.0
2015-May-26 18:32N 56°39' E 012°51'0 0.0
2015-May-26 17:26N 56°39' E 012°51'0 0.0
2015-May-26 16:20N 56°39' E 012°51'0 0.0
2015-May-26 15:20N 56°39' E 012°51'0 0.0
2015-May-26 12:26N 56°39' E 012°51'0 0.0
2015-May-26 11:32N 56°39' E 012°51'0 0.0
2015-May-26 09:20N 56°39' E 012°51'0 0.0
2015-May-26 08:14N 56°39' E 012°51'0 0.0
2015-May-26 07:26N 56°39' E 012°51'0 0.0
2015-May-26 06:14N 56°39' E 012°51'0 0.0
2015-May-26 05:20N 56°39' E 012°51'0 0.0
2015-May-26 04:08N 56°39' E 012°51'0 0.0
2015-May-26 03:26N 56°39' E 012°51'0 0.0
2015-May-26 02:32N 56°39' E 012°51'  

Dump ship's entire track history